sensor_id;sensor_type;location;lat;lon;timestamp;temperature;humidity
19344;DHT22;9808;52.402;16.678;2022-11-02T00:00:14;12.40;99.90
19344;DHT22;9808;52.402;16.678;2022-11-02T00:02:41;12.40;99.90
19344;DHT22;9808;52.402;16.678;2022-11-02T00:05:11;12.50;99.90
19344;DHT22;9808;52.402;16.678;2022-11-02T00:07:38;12.30;99.90
19344;DHT22;9808;52.402;16.678;2022-11-02T00:10:06;12.90;99.90
19344;DHT22;9808;52.402;16.678;2022-11-02T00:12:33;12.20;99.90
19344;DHT22;9808;52.402;16.678;2022-11-02T00:15:00;12.20;99.90
19344;DHT22;9808;52.402;16.678;2022-11-02T00:17:28;12.20;99.90
19344;DHT22;9808;52.402;16.678;2022-11-02T00:19:55;12.10;99.90
19344;DHT22;9808;52.402;16.678;2022-11-02T00:22:22;12.40;99.90
19344;DHT22;9808;52.402;16.678;2022-11-02T00:24:49;12.00;99.90
19344;DHT22;9808;52.402;16.678;2022-11-02T00:27:16;12.00;99.90
19344;DHT22;9808;52.402;16.678;2022-11-02T00:29:42;12.00;99.90
19344;DHT22;9808;52.402;16.678;2022-11-02T00:32:09;12.00;99.90
19344;DHT22;9808;52.402;16.678;2022-11-02T00:34:36;12.00;99.90
19344;DHT22;9808;52.402;16.678;2022-11-02T00:37:03;11.90;99.90
19344;DHT22;9808;52.402;16.678;2022-11-02T00:39:29;11.90;99.90
19344;DHT22;9808;52.402;16.678;2022-11-02T00:41:56;11.90;99.90
19344;DHT22;9808;52.402;16.678;2022-11-02T00:44:23;11.90;99.90
19344;DHT22;9808;52.402;16.678;2022-11-02T00:46:50;11.90;99.90
19344;DHT22;9808;52.402;16.678;2022-11-02T00:49:17;11.90;99.90
19344;DHT22;9808;52.402;16.678;2022-11-02T00:51:43;12.00;99.90
19344;DHT22;9808;52.402;16.678;2022-11-02T00:54:10;11.80;99.90
19344;DHT22;9808;52.402;16.678;2022-11-02T00:56:37;11.80;99.90
19344;DHT22;9808;52.402;16.678;2022-11-02T00:59:04;11.70;99.90
19344;DHT22;9808;52.402;16.678;2022-11-02T01:01:31;11.80;99.90
19344;DHT22;9808;52.402;16.678;2022-11-02T01:03:58;11.70;99.90
19344;DHT22;9808;52.402;16.678;2022-11-02T01:06:25;11.70;99.90
19344;DHT22;9808;52.402;16.678;2022-11-02T01:08:52;11.70;99.90
19344;DHT22;9808;52.402;16.678;2022-11-02T01:11:21;11.60;99.90
19344;DHT22;9808;52.402;16.678;2022-11-02T01:13:51;11.60;99.90
19344;DHT22;9808;52.402;16.678;2022-11-02T01:16:18;11.60;99.90
19344;DHT22;9808;52.402;16.678;2022-11-02T01:18:45;11.50;99.90
19344;DHT22;9808;52.402;16.678;2022-11-02T01:21:12;11.50;99.90
19344;DHT22;9808;52.402;16.678;2022-11-02T01:23:39;11.50;99.90
19344;DHT22;9808;52.402;16.678;2022-11-02T01:26:07;11.50;99.90
19344;DHT22;9808;52.402;16.678;2022-11-02T01:28:35;11.50;99.90
19344;DHT22;9808;52.402;16.678;2022-11-02T01:31:02;11.50;99.90
19344;DHT22;9808;52.402;16.678;2022-11-02T01:33:29;11.50;99.90
19344;DHT22;9808;52.402;16.678;2022-11-02T01:35:56;11.50;99.90
19344;DHT22;9808;52.402;16.678;2022-11-02T01:38:23;11.40;99.90
19344;DHT22;9808;52.402;16.678;2022-11-02T01:40:50;11.40;99.90
19344;DHT22;9808;52.402;16.678;2022-11-02T01:43:31;11.80;99.90
19344;DHT22;9808;52.402;16.678;2022-11-02T01:48:51;11.30;99.90
19344;DHT22;9808;52.402;16.678;2022-11-02T01:51:26;11.30;99.90
19344;DHT22;9808;52.402;16.678;2022-11-02T01:53:57;11.20;99.90
19344;DHT22;9808;52.402;16.678;2022-11-02T01:56:29;11.20;99.90
19344;DHT22;9808;52.402;16.678;2022-11-02T01:58:59;11.20;99.90
19344;DHT22;9808;52.402;16.678;2022-11-02T02:01:27;11.10;99.90
19344;DHT22;9808;52.402;16.678;2022-11-02T02:03:55;11.10;99.90
19344;DHT22;9808;52.402;16.678;2022-11-02T02:06:23;11.10;99.90
19344;DHT22;9808;52.402;16.678;2022-11-02T02:08:56;11.20;99.90
19344;DHT22;9808;52.402;16.678;2022-11-02T02:11:32;11.00;99.90
19344;DHT22;9808;52.402;16.678;2022-11-02T02:14:17;10.90;99.90
19344;DHT22;9808;52.402;16.678;2022-11-02T02:17:07;10.90;99.90
19344;DHT22;9808;52.402;16.678;2022-11-02T02:22:39;10.80;99.90
19344;DHT22;9808;52.402;16.678;2022-11-02T02:25:25;10.80;99.90
19344;DHT22;9808;52.402;16.678;2022-11-02T02:30:42;10.80;99.90
19344;DHT22;9808;52.402;16.678;2022-11-02T02:33:25;10.80;99.90
19344;DHT22;9808;52.402;16.678;2022-11-02T02:36:09;11.30;99.90
19344;DHT22;9808;52.402;16.678;2022-11-02T02:38:48;10.80;99.90
19344;DHT22;9808;52.402;16.678;2022-11-02T02:41:18;10.80;99.90
19344;DHT22;9808;52.402;16.678;2022-11-02T02:43:54;11.00;99.90
19344;DHT22;9808;52.402;16.678;2022-11-02T02:46:36;10.80;99.90
19344;DHT22;9808;52.402;16.678;2022-11-02T02:49:11;10.80;99.90
19344;DHT22;9808;52.402;16.678;2022-11-02T02:51:41;10.80;99.90
19344;DHT22;9808;52.402;16.678;2022-11-02T02:54:20;10.80;99.90
19344;DHT22;9808;52.402;16.678;2022-11-02T02:56:51;10.80;99.90
19344;DHT22;9808;52.402;16.678;2022-11-02T02:59:38;10.80;99.90
19344;DHT22;9808;52.402;16.678;2022-11-02T03:02:11;10.80;99.90
19344;DHT22;9808;52.402;16.678;2022-11-02T03:04:39;10.80;99.90
19344;DHT22;9808;52.402;16.678;2022-11-02T03:07:07;10.80;99.90
19344;DHT22;9808;52.402;16.678;2022-11-02T03:09:44;11.00;99.90
19344;DHT22;9808;52.402;16.678;2022-11-02T03:15:15;10.90;99.90
19344;DHT22;9808;52.402;16.678;2022-11-02T03:17:53;10.90;99.90
19344;DHT22;9808;52.402;16.678;2022-11-02T03:23:40;10.90;99.90
19344;DHT22;9808;52.402;16.678;2022-11-02T03:26:28;10.90;99.90
19344;DHT22;9808;52.402;16.678;2022-11-02T03:29:07;11.00;99.90
19344;DHT22;9808;52.402;16.678;2022-11-02T03:31:45;11.00;99.90
19344;DHT22;9808;52.402;16.678;2022-11-02T03:34:21;11.00;99.90
19344;DHT22;9808;52.402;16.678;2022-11-02T03:37:25;11.00;99.90
19344;DHT22;9808;52.402;16.678;2022-11-02T03:39:58;11.00;99.90
19344;DHT22;9808;52.402;16.678;2022-11-02T03:42:29;11.00;99.90
19344;DHT22;9808;52.402;16.678;2022-11-02T03:45:09;10.90;99.90
19344;DHT22;9808;52.402;16.678;2022-11-02T03:47:40;11.00;99.90
19344;DHT22;9808;52.402;16.678;2022-11-02T03:50:11;11.00;99.90
19344;DHT22;9808;52.402;16.678;2022-11-02T03:52:43;11.00;99.90
19344;DHT22;9808;52.402;16.678;2022-11-02T03:55:17;10.90;99.90
19344;DHT22;9808;52.402;16.678;2022-11-02T03:57:47;11.10;99.90
19344;DHT22;9808;52.402;16.678;2022-11-02T04:00:17;11.10;99.90
19344;DHT22;9808;52.402;16.678;2022-11-02T04:02:50;9.60;99.90
19344;DHT22;9808;52.402;16.678;2022-11-02T04:05:18;11.00;99.90
19344;DHT22;9808;52.402;16.678;2022-11-02T04:07:49;11.00;99.90
19344;DHT22;9808;52.402;16.678;2022-11-02T04:10:53;11.00;99.90
19344;DHT22;9808;52.402;16.678;2022-11-02T04:13:38;11.20;99.90
19344;DHT22;9808;52.402;16.678;2022-11-02T04:16:25;11.10;99.90
19344;DHT22;9808;52.402;16.678;2022-11-02T04:18:54;11.00;99.90
19344;DHT22;9808;52.402;16.678;2022-11-02T04:21:41;11.00;99.90
19344;DHT22;9808;52.402;16.678;2022-11-02T04:24:28;11.00;99.90
19344;DHT22;9808;52.402;16.678;2022-11-02T04:27:14;11.00;99.90
19344;DHT22;9808;52.402;16.678;2022-11-02T04:29:46;11.00;99.90
19344;DHT22;9808;52.402;16.678;2022-11-02T04:32:13;11.00;99.90
19344;DHT22;9808;52.402;16.678;2022-11-02T04:34:39;11.00;99.90
19344;DHT22;9808;52.402;16.678;2022-11-02T04:37:06;11.00;99.90
19344;DHT22;9808;52.402;16.678;2022-11-02T04:39:53;11.00;99.90
19344;DHT22;9808;52.402;16.678;2022-11-02T04:42:20;11.00;99.90
19344;DHT22;9808;52.402;16.678;2022-11-02T04:44:47;11.00;99.90
19344;DHT22;9808;52.402;16.678;2022-11-02T04:47:14;11.00;99.90
19344;DHT22;9808;52.402;16.678;2022-11-02T04:49:41;11.00;99.90
19344;DHT22;9808;52.402;16.678;2022-11-02T04:52:11;11.00;99.90
19344;DHT22;9808;52.402;16.678;2022-11-02T04:54:37;10.90;99.90
19344;DHT22;9808;52.402;16.678;2022-11-02T04:57:04;11.00;99.90
19344;DHT22;9808;52.402;16.678;2022-11-02T04:59:31;11.00;99.90
19344;DHT22;9808;52.402;16.678;2022-11-02T05:01:59;10.90;99.90
19344;DHT22;9808;52.402;16.678;2022-11-02T05:04:29;11.00;99.90
19344;DHT22;9808;52.402;16.678;2022-11-02T05:06:56;11.00;99.90
19344;DHT22;9808;52.402;16.678;2022-11-02T05:09:27;11.00;99.90
19344;DHT22;9808;52.402;16.678;2022-11-02T05:11:54;10.90;99.90
19344;DHT22;9808;52.402;16.678;2022-11-02T05:14:21;10.90;99.90
19344;DHT22;9808;52.402;16.678;2022-11-02T05:16:48;10.90;99.90
19344;DHT22;9808;52.402;16.678;2022-11-02T05:19:15;10.90;99.90
19344;DHT22;9808;52.402;16.678;2022-11-02T05:21:42;10.90;99.90
19344;DHT22;9808;52.402;16.678;2022-11-02T05:24:09;10.80;99.90
19344;DHT22;9808;52.402;16.678;2022-11-02T05:26:36;10.80;99.90
19344;DHT22;9808;52.402;16.678;2022-11-02T05:29:06;10.80;99.90
19344;DHT22;9808;52.402;16.678;2022-11-02T05:31:33;10.70;99.90
19344;DHT22;9808;52.402;16.678;2022-11-02T05:34:00;10.70;99.90
19344;DHT22;9808;52.402;16.678;2022-11-02T05:36:27;11.30;99.90
19344;DHT22;9808;52.402;16.678;2022-11-02T05:38:54;10.70;99.90
19344;DHT22;9808;52.402;16.678;2022-11-02T05:41:22;10.60;99.90
19344;DHT22;9808;52.402;16.678;2022-11-02T05:43:49;10.50;99.90
19344;DHT22;9808;52.402;16.678;2022-11-02T05:46:15;10.50;99.90
19344;DHT22;9808;52.402;16.678;2022-11-02T05:48:42;10.40;99.90
19344;DHT22;9808;52.402;16.678;2022-11-02T05:51:09;10.80;99.90
19344;DHT22;9808;52.402;16.678;2022-11-02T05:53:36;10.30;99.90
19344;DHT22;9808;52.402;16.678;2022-11-02T05:56:08;10.30;99.90
19344;DHT22;9808;52.402;16.678;2022-11-02T05:58:39;10.20;99.90
19344;DHT22;9808;52.402;16.678;2022-11-02T06:01:07;10.20;99.90
19344;DHT22;9808;52.402;16.678;2022-11-02T06:03:34;11.10;99.90
19344;DHT22;9808;52.402;16.678;2022-11-02T06:06:04;10.10;99.90
19344;DHT22;9808;52.402;16.678;2022-11-02T06:08:34;10.00;99.90
19344;DHT22;9808;52.402;16.678;2022-11-02T06:11:09;10.90;99.90
19344;DHT22;9808;52.402;16.678;2022-11-02T06:13:36;9.90;99.90
19344;DHT22;9808;52.402;16.678;2022-11-02T06:16:05;10.10;99.90
19344;DHT22;9808;52.402;16.678;2022-11-02T06:18:33;9.90;99.90
19344;DHT22;9808;52.402;16.678;2022-11-02T06:21:00;10.30;99.90
19344;DHT22;9808;52.402;16.678;2022-11-02T06:23:30;9.90;99.90
19344;DHT22;9808;52.402;16.678;2022-11-02T06:25:58;9.80;99.90
19344;DHT22;9808;52.402;16.678;2022-11-02T06:28:26;10.70;99.90
19344;DHT22;9808;52.402;16.678;2022-11-02T06:30:53;9.70;99.90
19344;DHT22;9808;52.402;16.678;2022-11-02T06:33:20;10.90;99.90
19344;DHT22;9808;52.402;16.678;2022-11-02T06:35:49;9.70;99.90
19344;DHT22;9808;52.402;16.678;2022-11-02T06:38:17;11.00;99.90
19344;DHT22;9808;52.402;16.678;2022-11-02T06:40:52;9.60;99.90
19344;DHT22;9808;52.402;16.678;2022-11-02T06:43:19;9.70;99.90
19344;DHT22;9808;52.402;16.678;2022-11-02T06:45:54;9.70;99.90
19344;DHT22;9808;52.402;16.678;2022-11-02T06:48:22;9.70;99.90
19344;DHT22;9808;52.402;16.678;2022-11-02T06:50:49;9.70;99.90
19344;DHT22;9808;52.402;16.678;2022-11-02T06:53:16;10.40;99.90
19344;DHT22;9808;52.402;16.678;2022-11-02T06:55:43;9.70;99.90
19344;DHT22;9808;52.402;16.678;2022-11-02T06:58:10;9.70;99.90
19344;DHT22;9808;52.402;16.678;2022-11-02T07:00:44;10.20;99.90
19344;DHT22;9808;52.402;16.678;2022-11-02T07:03:11;11.10;99.90
19344;DHT22;9808;52.402;16.678;2022-11-02T07:05:38;9.70;99.90
19344;DHT22;9808;52.402;16.678;2022-11-02T07:08:05;9.70;99.90
19344;DHT22;9808;52.402;16.678;2022-11-02T07:10:32;11.00;99.90
19344;DHT22;9808;52.402;16.678;2022-11-02T07:13:01;9.70;99.90
19344;DHT22;9808;52.402;16.678;2022-11-02T07:15:28;9.80;99.90
19344;DHT22;9808;52.402;16.678;2022-11-02T07:17:55;9.80;99.90
19344;DHT22;9808;52.402;16.678;2022-11-02T07:20:22;9.70;99.90
19344;DHT22;9808;52.402;16.678;2022-11-02T07:22:53;9.70;99.90
19344;DHT22;9808;52.402;16.678;2022-11-02T07:25:20;9.80;99.90
19344;DHT22;9808;52.402;16.678;2022-11-02T07:27:47;9.70;99.90
19344;DHT22;9808;52.402;16.678;2022-11-02T07:30:14;9.80;99.90
19344;DHT22;9808;52.402;16.678;2022-11-02T07:32:44;11.10;99.90
19344;DHT22;9808;52.402;16.678;2022-11-02T07:35:13;9.80;99.90
19344;DHT22;9808;52.402;16.678;2022-11-02T07:37:40;9.80;99.90
19344;DHT22;9808;52.402;16.678;2022-11-02T07:40:08;9.90;99.90
19344;DHT22;9808;52.402;16.678;2022-11-02T07:42:43;9.90;99.90
19344;DHT22;9808;52.402;16.678;2022-11-02T07:45:10;10.00;99.90
19344;DHT22;9808;52.402;16.678;2022-11-02T07:47:45;10.10;99.90
19344;DHT22;9808;52.402;16.678;2022-11-02T07:50:14;10.10;99.90
19344;DHT22;9808;52.402;16.678;2022-11-02T07:52:52;10.20;99.90
19344;DHT22;9808;52.402;16.678;2022-11-02T07:55:21;10.10;99.90
19344;DHT22;9808;52.402;16.678;2022-11-02T07:58:09;10.40;99.90
19344;DHT22;9808;52.402;16.678;2022-11-02T08:00:39;10.30;99.90
19344;DHT22;9808;52.402;16.678;2022-11-02T08:03:08;11.30;99.90
19344;DHT22;9808;52.402;16.678;2022-11-02T08:05:38;10.30;99.90
19344;DHT22;9808;52.402;16.678;2022-11-02T08:08:09;10.40;99.90
19344;DHT22;9808;52.402;16.678;2022-11-02T08:10:36;10.60;99.90
19344;DHT22;9808;52.402;16.678;2022-11-02T08:13:13;10.40;99.90
19344;DHT22;9808;52.402;16.678;2022-11-02T08:15:41;10.50;99.90
19344;DHT22;9808;52.402;16.678;2022-11-02T08:18:17;10.50;99.90
19344;DHT22;9808;52.402;16.678;2022-11-02T08:20:44;10.50;99.90
19344;DHT22;9808;52.402;16.678;2022-11-02T08:23:12;11.00;99.90
19344;DHT22;9808;52.402;16.678;2022-11-02T08:25:40;10.50;99.90
19344;DHT22;9808;52.402;16.678;2022-11-02T08:28:12;10.80;99.90
19344;DHT22;9808;52.402;16.678;2022-11-02T08:30:39;10.60;99.90
19344;DHT22;9808;52.402;16.678;2022-11-02T08:33:08;10.70;99.90
19344;DHT22;9808;52.402;16.678;2022-11-02T08:35:37;10.70;99.90
19344;DHT22;9808;52.402;16.678;2022-11-02T08:38:05;10.80;99.90
19344;DHT22;9808;52.402;16.678;2022-11-02T08:40:34;10.90;99.90
19344;DHT22;9808;52.402;16.678;2022-11-02T08:43:06;10.90;99.90
19344;DHT22;9808;52.402;16.678;2022-11-02T08:45:35;11.00;99.90
19344;DHT22;9808;52.402;16.678;2022-11-02T08:48:22;11.00;99.90
19344;DHT22;9808;52.402;16.678;2022-11-02T08:50:49;11.10;99.90
19344;DHT22;9808;52.402;16.678;2022-11-02T08:53:16;11.20;99.90
19344;DHT22;9808;52.402;16.678;2022-11-02T08:55:43;11.30;99.90
19344;DHT22;9808;52.402;16.678;2022-11-02T08:58:10;11.30;99.90
19344;DHT22;9808;52.402;16.678;2022-11-02T09:00:36;11.70;99.90
19344;DHT22;9808;52.402;16.678;2022-11-02T09:03:11;11.40;99.90
19344;DHT22;9808;52.402;16.678;2022-11-02T09:05:40;11.40;99.90
19344;DHT22;9808;52.402;16.678;2022-11-02T09:08:18;11.40;99.90
19344;DHT22;9808;52.402;16.678;2022-11-02T09:10:48;11.50;99.90
19344;DHT22;9808;52.402;16.678;2022-11-02T09:13:16;11.80;99.90
19344;DHT22;9808;52.402;16.678;2022-11-02T09:15:52;11.50;99.90
19344;DHT22;9808;52.402;16.678;2022-11-02T09:18:19;11.60;96.60
19344;DHT22;9808;52.402;16.678;2022-11-02T09:20:46;12.10;99.90
19344;DHT22;9808;52.402;16.678;2022-11-02T09:23:17;11.70;97.00
19344;DHT22;9808;52.402;16.678;2022-11-02T09:25:44;11.80;96.60
19344;DHT22;9808;52.402;16.678;2022-11-02T09:28:11;11.80;91.60
19344;DHT22;9808;52.402;16.678;2022-11-02T09:30:38;11.90;93.80
19344;DHT22;9808;52.402;16.678;2022-11-02T09:33:05;11.90;94.60
19344;DHT22;9808;52.402;16.678;2022-11-02T09:35:38;12.00;80.40
19344;DHT22;9808;52.402;16.678;2022-11-02T09:38:06;12.00;57.50
19344;DHT22;9808;52.402;16.678;2022-11-02T09:40:42;12.10;52.50
19344;DHT22;9808;52.402;16.678;2022-11-02T09:45:59;12.20;39.80
19344;DHT22;9808;52.402;16.678;2022-11-02T09:48:33;12.20;34.80
19344;DHT22;9808;52.402;16.678;2022-11-02T09:51:16;12.30;25.60
19344;DHT22;9808;52.402;16.678;2022-11-02T09:56:20;12.40;21.40
19344;DHT22;9808;52.402;16.678;2022-11-02T09:58:59;12.40;23.20
19344;DHT22;9808;52.402;16.678;2022-11-02T10:01:33;13.30;16.30
19344;DHT22;9808;52.402;16.678;2022-11-02T10:13:17;12.70;21.90
19344;DHT22;9808;52.402;16.678;2022-11-02T10:15:54;12.80;2.30
19344;DHT22;9808;52.402;16.678;2022-11-02T10:18:26;12.90;1.00
19344;DHT22;9808;52.402;16.678;2022-11-02T10:20:57;12.90;1.00
19344;DHT22;9808;52.402;16.678;2022-11-02T10:23:29;13.00;1.00
19344;DHT22;9808;52.402;16.678;2022-11-02T10:25:59;13.10;1.00
19344;DHT22;9808;52.402;16.678;2022-11-02T10:28:30;13.10;1.00
19344;DHT22;9808;52.402;16.678;2022-11-02T10:31:00;13.20;1.00
19344;DHT22;9808;52.402;16.678;2022-11-02T10:33:29;13.20;1.00
19344;DHT22;9808;52.402;16.678;2022-11-02T10:39:10;13.20;1.00
19344;DHT22;9808;52.402;16.678;2022-11-02T10:42:09;13.30;1.00
19344;DHT22;9808;52.402;16.678;2022-11-02T10:45:00;13.40;1.00
19344;DHT22;9808;52.402;16.678;2022-11-02T10:47:57;13.40;1.00
19344;DHT22;9808;52.402;16.678;2022-11-02T10:53:16;13.50;1.00
19344;DHT22;9808;52.402;16.678;2022-11-02T11:01:22;13.60;1.00
19344;DHT22;9808;52.402;16.678;2022-11-02T11:03:58;13.70;1.00
19344;DHT22;9808;52.402;16.678;2022-11-02T11:06:41;13.70;1.00
19344;DHT22;9808;52.402;16.678;2022-11-02T11:09:23;13.70;1.00
19344;DHT22;9808;52.402;16.678;2022-11-02T11:12:04;13.80;1.00
19344;DHT22;9808;52.402;16.678;2022-11-02T11:14:45;13.80;1.00
19344;DHT22;9808;52.402;16.678;2022-11-02T11:17:35;13.90;1.00
19344;DHT22;9808;52.402;16.678;2022-11-02T11:28:23;14.00;1.00
19344;DHT22;9808;52.402;16.678;2022-11-02T11:33:31;14.10;1.00
19344;DHT22;9808;52.402;16.678;2022-11-02T11:35:59;14.10;1.00
19344;DHT22;9808;52.402;16.678;2022-11-02T11:38:26;14.10;1.00
19344;DHT22;9808;52.402;16.678;2022-11-02T11:40:56;14.20;1.00
19344;DHT22;9808;52.402;16.678;2022-11-02T11:43:27;14.20;1.00
19344;DHT22;9808;52.402;16.678;2022-11-02T11:46:03;14.20;1.00
19344;DHT22;9808;52.402;16.678;2022-11-02T11:48:49;14.10;1.00
19344;DHT22;9808;52.402;16.678;2022-11-02T11:51:39;14.20;1.00
19344;DHT22;9808;52.402;16.678;2022-11-02T11:54:18;14.30;1.00
19344;DHT22;9808;52.402;16.678;2022-11-02T11:56:47;14.30;1.00
19344;DHT22;9808;52.402;16.678;2022-11-02T11:59:44;14.30;1.00
19344;DHT22;9808;52.402;16.678;2022-11-02T12:02:24;14.30;1.00
19344;DHT22;9808;52.402;16.678;2022-11-02T12:05:14;14.30;1.00
19344;DHT22;9808;52.402;16.678;2022-11-02T12:19:26;14.40;1.00
19344;DHT22;9808;52.402;16.678;2022-11-02T12:27:38;14.40;1.00
19344;DHT22;9808;52.402;16.678;2022-11-02T12:30:17;14.60;1.00
19344;DHT22;9808;52.402;16.678;2022-11-02T12:43:45;14.60;1.00
19344;DHT22;9808;52.402;16.678;2022-11-02T12:55:15;14.70;1.00
19344;DHT22;9808;52.402;16.678;2022-11-02T12:57:44;14.70;1.00
19344;DHT22;9808;52.402;16.678;2022-11-02T13:00:18;14.70;1.00
19344;DHT22;9808;52.402;16.678;2022-11-02T13:05:31;14.80;1.00
19344;DHT22;9808;52.402;16.678;2022-11-02T13:10:42;14.80;1.00
19344;DHT22;9808;52.402;16.678;2022-11-02T13:13:23;14.70;1.00
19344;DHT22;9808;52.402;16.678;2022-11-02T13:15:52;14.70;1.00
19344;DHT22;9808;52.402;16.678;2022-11-02T13:18:29;14.70;1.00
19344;DHT22;9808;52.402;16.678;2022-11-02T13:20:58;14.70;1.00
19344;DHT22;9808;52.402;16.678;2022-11-02T13:23:40;16.20;1.00
19344;DHT22;9808;52.402;16.678;2022-11-02T13:26:35;14.70;1.00
19344;DHT22;9808;52.402;16.678;2022-11-02T13:29:36;14.70;1.00
19344;DHT22;9808;52.402;16.678;2022-11-02T13:32:23;14.60;1.00
19344;DHT22;9808;52.402;16.678;2022-11-02T13:35:03;14.60;1.00
19344;DHT22;9808;52.402;16.678;2022-11-02T13:37:38;14.50;1.00
19344;DHT22;9808;52.402;16.678;2022-11-02T13:40:14;14.50;1.00
19344;DHT22;9808;52.402;16.678;2022-11-02T13:46:06;14.30;1.00
19344;DHT22;9808;52.402;16.678;2022-11-02T13:48:54;14.40;1.00
19344;DHT22;9808;52.402;16.678;2022-11-02T13:51:48;14.30;1.00
19344;DHT22;9808;52.402;16.678;2022-11-02T13:54:23;14.30;1.00
19344;DHT22;9808;52.402;16.678;2022-11-02T13:56:53;14.20;1.00
19344;DHT22;9808;52.402;16.678;2022-11-02T14:01:50;14.20;1.00
19344;DHT22;9808;52.402;16.678;2022-11-02T14:04:18;14.10;1.00
19344;DHT22;9808;52.402;16.678;2022-11-02T14:06:50;14.10;1.00
19344;DHT22;9808;52.402;16.678;2022-11-02T14:09:34;14.70;1.00
19344;DHT22;9808;52.402;16.678;2022-11-02T14:14:44;14.10;1.00
19344;DHT22;9808;52.402;16.678;2022-11-02T14:17:16;14.10;1.00
19344;DHT22;9808;52.402;16.678;2022-11-02T14:22:14;14.20;1.00
19344;DHT22;9808;52.402;16.678;2022-11-02T14:40:30;14.20;1.00
19344;DHT22;9808;52.402;16.678;2022-11-02T14:48:55;14.10;1.00
19344;DHT22;9808;52.402;16.678;2022-11-02T14:51:31;14.20;1.00
19344;DHT22;9808;52.402;16.678;2022-11-02T14:53:59;14.20;1.00
19344;DHT22;9808;52.402;16.678;2022-11-02T14:59:38;14.10;1.00
19344;DHT22;9808;52.402;16.678;2022-11-02T15:02:12;14.00;1.00
19344;DHT22;9808;52.402;16.678;2022-11-02T15:04:50;13.90;1.00
19344;DHT22;9808;52.402;16.678;2022-11-02T15:07:31;13.90;1.00
19344;DHT22;9808;52.402;16.678;2022-11-02T15:12:44;13.70;1.00
19344;DHT22;9808;52.402;16.678;2022-11-02T15:15:33;13.60;1.00
19344;DHT22;9808;52.402;16.678;2022-11-02T15:26:49;13.40;1.00
19344;DHT22;9808;52.402;16.678;2022-11-02T15:29:46;13.30;1.00
19344;DHT22;9808;52.402;16.678;2022-11-02T15:32:18;13.30;1.00
19344;DHT22;9808;52.402;16.678;2022-11-02T15:34:50;13.30;1.00
19344;DHT22;9808;52.402;16.678;2022-11-02T15:37:21;13.20;1.00
19344;DHT22;9808;52.402;16.678;2022-11-02T15:39:58;13.10;1.00
19344;DHT22;9808;52.402;16.678;2022-11-02T15:53:38;12.70;1.00
19344;DHT22;9808;52.402;16.678;2022-11-02T16:01:29;12.50;1.00
19344;DHT22;9808;52.402;16.678;2022-11-02T16:03:59;12.40;1.00
19344;DHT22;9808;52.402;16.678;2022-11-02T16:06:35;12.40;1.00
19344;DHT22;9808;52.402;16.678;2022-11-02T16:12:13;12.30;1.00
19344;DHT22;9808;52.402;16.678;2022-11-02T16:14:43;12.20;1.00
19344;DHT22;9808;52.402;16.678;2022-11-02T16:17:27;12.20;1.90
19344;DHT22;9808;52.402;16.678;2022-11-02T16:25:40;12.20;18.40
19344;DHT22;9808;52.402;16.678;2022-11-02T16:30:41;12.20;22.40
19344;DHT22;9808;52.402;16.678;2022-11-02T16:33:09;12.30;27.10
19344;DHT22;9808;52.402;16.678;2022-11-02T16:35:37;12.10;29.70
19344;DHT22;9808;52.402;16.678;2022-11-02T16:38:04;12.10;29.10
19344;DHT22;9808;52.402;16.678;2022-11-02T16:40:31;12.10;31.60
19344;DHT22;9808;52.402;16.678;2022-11-02T16:42:58;12.90;34.60
19344;DHT22;9808;52.402;16.678;2022-11-02T16:45:35;12.10;28.80
19344;DHT22;9808;52.402;16.678;2022-11-02T16:48:27;12.10;20.60
19344;DHT22;9808;52.402;16.678;2022-11-02T16:53:40;12.00;22.10
19344;DHT22;9808;52.402;16.678;2022-11-02T16:56:26;12.00;25.70
19344;DHT22;9808;52.402;16.678;2022-11-02T16:59:03;12.00;28.30
19344;DHT22;9808;52.402;16.678;2022-11-02T17:01:35;12.00;28.70
19344;DHT22;9808;52.402;16.678;2022-11-02T17:04:24;12.00;25.60
19344;DHT22;9808;52.402;16.678;2022-11-02T17:07:21;12.00;24.20
19344;DHT22;9808;52.402;16.678;2022-11-02T17:09:54;12.00;23.10
19344;DHT22;9808;52.402;16.678;2022-11-02T17:12:36;12.00;7.10
19344;DHT22;9808;52.402;16.678;2022-11-02T17:15:20;12.10;38.30
19344;DHT22;9808;52.402;16.678;2022-11-02T17:17:48;12.10;1.00
19344;DHT22;9808;52.402;16.678;2022-11-02T17:20:21;12.10;1.00
19344;DHT22;9808;52.402;16.678;2022-11-02T17:22:56;12.10;1.00
19344;DHT22;9808;52.402;16.678;2022-11-02T17:28:00;12.00;3.30
19344;DHT22;9808;52.402;16.678;2022-11-02T17:33:08;11.90;13.50
19344;DHT22;9808;52.402;16.678;2022-11-02T17:35:47;11.80;18.60
19344;DHT22;9808;52.402;16.678;2022-11-02T17:38:15;11.80;18.70
19344;DHT22;9808;52.402;16.678;2022-11-02T17:40:42;11.80;23.90
19344;DHT22;9808;52.402;16.678;2022-11-02T17:43:09;11.70;27.50
19344;DHT22;9808;52.402;16.678;2022-11-02T17:45:39;11.70;30.50
19344;DHT22;9808;52.402;16.678;2022-11-02T17:48:07;11.70;38.20
19344;DHT22;9808;52.402;16.678;2022-11-02T17:50:37;11.90;40.00
19344;DHT22;9808;52.402;16.678;2022-11-02T17:53:05;11.60;44.70
19344;DHT22;9808;52.402;16.678;2022-11-02T17:55:39;11.60;49.90
19344;DHT22;9808;52.402;16.678;2022-11-02T17:58:06;11.50;52.40
19344;DHT22;9808;52.402;16.678;2022-11-02T18:00:35;11.50;57.00
19344;DHT22;9808;52.402;16.678;2022-11-02T18:03:02;11.50;56.80
19344;DHT22;9808;52.402;16.678;2022-11-02T18:05:36;11.30;56.30
19344;DHT22;9808;52.402;16.678;2022-11-02T18:08:04;11.30;59.60
19344;DHT22;9808;52.402;16.678;2022-11-02T18:10:40;11.30;61.70
19344;DHT22;9808;52.402;16.678;2022-11-02T18:13:21;11.20;63.70
19344;DHT22;9808;52.402;16.678;2022-11-02T18:15:49;11.50;66.20
19344;DHT22;9808;52.402;16.678;2022-11-02T18:18:16;11.10;67.80
19344;DHT22;9808;52.402;16.678;2022-11-02T18:20:42;11.10;69.30
19344;DHT22;9808;52.402;16.678;2022-11-02T18:23:14;11.00;71.60
19344;DHT22;9808;52.402;16.678;2022-11-02T18:25:42;11.00;71.70
19344;DHT22;9808;52.402;16.678;2022-11-02T18:28:09;10.90;72.90
19344;DHT22;9808;52.402;16.678;2022-11-02T18:30:36;10.90;73.90
19344;DHT22;9808;52.402;16.678;2022-11-02T18:33:06;10.80;73.20
19344;DHT22;9808;52.402;16.678;2022-11-02T18:35:39;10.80;73.10
19344;DHT22;9808;52.402;16.678;2022-11-02T18:38:05;10.80;73.80
19344;DHT22;9808;52.402;16.678;2022-11-02T18:40:33;10.70;75.50
19344;DHT22;9808;52.402;16.678;2022-11-02T18:43:01;10.70;77.70
19344;DHT22;9808;52.402;16.678;2022-11-02T18:45:28;10.60;79.60
19344;DHT22;9808;52.402;16.678;2022-11-02T18:48:00;10.50;81.50
19344;DHT22;9808;52.402;16.678;2022-11-02T18:50:27;10.50;83.30
19344;DHT22;9808;52.402;16.678;2022-11-02T18:52:54;10.50;85.30
19344;DHT22;9808;52.402;16.678;2022-11-02T18:55:20;10.40;85.50
19344;DHT22;9808;52.402;16.678;2022-11-02T18:57:47;11.00;87.50
19344;DHT22;9808;52.402;16.678;2022-11-02T19:00:16;10.30;87.70
19344;DHT22;9808;52.402;16.678;2022-11-02T19:02:43;10.30;88.80